createdAt,value
2023-02-28T00:00:19.700Z,3.17
2023-02-28T00:03:21.112Z,3.97
2023-02-28T00:06:22.806Z,2.83
2023-02-28T00:09:24.183Z,3.27
2023-02-28T00:12:25.666Z,2.40
2023-02-28T00:15:27.388Z,6.50
2023-02-28T00:18:31.499Z,3.07
2023-02-28T00:21:33.045Z,4.27
2023-02-28T00:24:34.501Z,2.53
2023-02-28T00:27:37.515Z,2.50
2023-02-28T00:30:39.827Z,2.33
2023-02-28T00:33:41.248Z,2.97
2023-02-28T00:36:46.239Z,3.57
2023-02-28T00:39:47.630Z,4.43
2023-02-28T00:42:51.055Z,2.60
2023-02-28T00:45:52.566Z,3.50
2023-02-28T00:48:53.995Z,2.67
2023-02-28T00:51:56.493Z,2.93
2023-02-28T00:54:58.171Z,3.00
2023-02-28T00:57:59.679Z,2.27
2023-02-28T01:01:01.326Z,2.90
2023-02-28T01:04:02.752Z,2.70
2023-02-28T01:07:04.206Z,3.43
2023-02-28T01:10:06.110Z,3.50
2023-02-28T01:13:07.995Z,4.77
2023-02-28T01:16:14.003Z,3.53
2023-02-28T01:19:15.421Z,2.57
2023-02-28T01:22:16.852Z,3.30
2023-02-28T01:25:18.267Z,3.10
2023-02-28T01:28:19.792Z,2.27
2023-02-28T01:31:22.214Z,2.53
2023-02-28T01:34:24.122Z,3.00
2023-02-28T01:37:26.418Z,5.87
2023-02-28T01:40:27.831Z,3.50
2023-02-28T01:43:53.827Z,2.90
2023-02-28T01:46:55.220Z,2.57
2023-02-28T01:49:57.119Z,2.83
2023-02-28T01:53:02.698Z,3.40
2023-02-28T01:56:09.354Z,3.27
2023-02-28T01:59:15.060Z,4.10
2023-02-28T02:02:18.535Z,3.70
2023-02-28T02:05:26.472Z,5.00
2023-02-28T02:08:30.038Z,5.10
2023-02-28T02:11:31.932Z,5.77
2023-02-28T02:14:49.147Z,4.53
2023-02-28T02:17:57.040Z,3.53
2023-02-28T02:21:37.004Z,3.80
2023-02-28T02:24:41.607Z,3.63
2023-02-28T02:28:30.908Z,4.03
2023-02-28T02:31:57.047Z,3.47
2023-02-28T02:35:43.836Z,7.57
2023-02-28T02:39:03.283Z,4.07
2023-02-28T02:42:15.003Z,5.53
2023-02-28T02:45:24.705Z,4.23
2023-02-28T02:48:33.165Z,4.97
2023-02-28T02:51:35.710Z,4.43
2023-02-28T02:54:41.082Z,5.10
2023-02-28T02:57:54.754Z,5.33
2023-02-28T03:01:01.632Z,3.60
2023-02-28T03:04:18.972Z,5.13
2023-02-28T03:07:22.354Z,4.40
2023-02-28T03:10:44.322Z,4.33
2023-02-28T03:14:10.940Z,3.97
2023-02-28T03:17:26.018Z,3.73
2023-02-28T03:20:53.766Z,8.60
2023-02-28T03:24:05.528Z,4.93
2023-02-28T03:27:17.604Z,5.40
2023-02-28T03:30:28.883Z,4.60
2023-02-28T03:33:39.007Z,4.67
2023-02-28T03:36:46.904Z,3.83
2023-02-28T03:39:54.598Z,3.87
2023-02-28T03:43:03.293Z,3.60
2023-02-28T03:46:10.245Z,4.80
2023-02-28T03:49:25.665Z,5.10
2023-02-28T03:52:33.413Z,4.70
2023-02-28T03:55:43.516Z,4.60
2023-02-28T03:59:03.561Z,4.37
2023-02-28T04:02:05.110Z,4.80
2023-02-28T04:05:08.109Z,4.30
2023-02-28T04:08:09.562Z,5.10
2023-02-28T04:11:29.771Z,5.17
2023-02-28T04:14:31.414Z,5.70
2023-02-28T04:17:32.869Z,4.53
2023-02-28T04:20:34.260Z,4.30
2023-02-28T04:23:35.647Z,5.97
2023-02-28T04:26:37.638Z,5.00
2023-02-28T04:29:39.141Z,3.77
2023-02-28T04:32:40.623Z,6.80
2023-02-28T04:35:42.223Z,4.93
2023-02-28T04:38:43.601Z,5.50
2023-02-28T04:41:46.359Z,5.00
2023-02-28T04:44:48.168Z,4.80
2023-02-28T04:47:49.559Z,4.03
2023-02-28T04:50:51.781Z,6.30
2023-02-28T04:53:53.398Z,5.40
2023-02-28T04:56:55.686Z,5.87
2023-02-28T04:59:57.060Z,4.93
2023-02-28T05:02:58.422Z,6.47
2023-02-28T05:05:59.785Z,4.43
2023-02-28T05:09:01.274Z,4.40
2023-02-28T05:12:02.784Z,4.97
2023-02-28T05:15:05.840Z,4.97
2023-02-28T05:18:09.159Z,7.13
2023-02-28T05:21:25.550Z,6.70
2023-02-28T05:24:27.088Z,5.53
2023-02-28T05:27:29.214Z,4.87
2023-02-28T05:30:30.944Z,6.27
2023-02-28T05:33:32.353Z,5.87
2023-02-28T05:36:34.457Z,6.30
2023-02-28T05:39:35.888Z,4.87
2023-02-28T05:42:38.402Z,5.00
2023-02-28T05:45:39.864Z,5.93
2023-02-28T05:48:42.946Z,6.73
2023-02-28T05:51:44.542Z,5.80
2023-02-28T05:54:47.740Z,5.40
2023-02-28T05:57:49.110Z,6.50
2023-02-28T06:00:50.485Z,6.03
2023-02-28T06:03:51.931Z,4.83
2023-02-28T06:06:53.431Z,4.97
2023-02-28T06:09:54.799Z,6.13
2023-02-28T06:12:56.211Z,5.50
2023-02-28T06:15:57.592Z,5.00
2023-02-28T06:19:00.621Z,5.97
2023-02-28T06:22:02.080Z,6.07
2023-02-28T06:25:07.364Z,5.53
2023-02-28T06:28:08.783Z,7.27
2023-02-28T06:31:17.798Z,8.03
2023-02-28T06:34:19.266Z,5.40
2023-02-28T06:37:21.008Z,6.03
2023-02-28T06:40:22.432Z,6.33
2023-02-28T06:43:25.605Z,5.33
2023-02-28T06:46:27.069Z,4.73
2023-02-28T06:49:28.613Z,6.50
2023-02-28T06:52:30.366Z,7.83
2023-02-28T06:55:32.078Z,6.10
2023-02-28T06:58:34.391Z,6.80
2023-02-28T07:01:35.840Z,7.23
2023-02-28T07:04:37.381Z,6.53
2023-02-28T07:07:41.513Z,6.80
2023-02-28T07:10:42.932Z,6.97
2023-02-28T07:13:44.578Z,8.80
2023-02-28T07:16:46.756Z,8.20
2023-02-28T07:19:48.186Z,7.20
2023-02-28T07:22:56.065Z,6.73
2023-02-28T07:25:57.475Z,6.80
2023-02-28T07:28:58.916Z,6.37
2023-02-28T07:32:00.311Z,5.37
2023-02-28T07:35:01.696Z,7.93
2023-02-28T07:38:03.939Z,6.73
2023-02-28T07:41:05.443Z,6.93
2023-02-28T07:44:06.977Z,6.97
2023-02-28T07:47:10.132Z,9.30
2023-02-28T07:50:14.255Z,6.87
2023-02-28T07:53:15.632Z,7.37
2023-02-28T07:56:17.009Z,6.77
2023-02-28T07:59:18.497Z,7.63
2023-02-28T08:02:20.077Z,6.53
2023-02-28T08:05:22.249Z,11.80
2023-02-28T08:08:24.478Z,6.50
2023-02-28T08:11:25.934Z,6.97
2023-02-28T08:14:27.627Z,7.10
2023-02-28T08:17:29.852Z,6.30
2023-02-28T08:20:31.699Z,6.27
2023-02-28T08:23:34.503Z,7.53
2023-02-28T08:26:35.920Z,8.80
2023-02-28T08:29:40.413Z,8.60
2023-02-28T08:32:42.013Z,7.63
2023-02-28T08:35:43.458Z,9.10
2023-02-28T08:38:44.922Z,7.30
2023-02-28T08:41:49.371Z,7.43
2023-02-28T08:44:52.623Z,7.17
2023-02-28T08:47:55.533Z,8.13
2023-02-28T08:51:19.485Z,8.40
2023-02-28T08:54:20.899Z,7.90
2023-02-28T08:57:22.334Z,8.30
2023-02-28T09:00:23.999Z,8.30
2023-02-28T09:03:25.621Z,8.20
2023-02-28T09:06:28.081Z,6.70
2023-02-28T09:09:29.695Z,8.53
2023-02-28T09:12:35.262Z,8.37
2023-02-28T09:15:38.685Z,8.80
2023-02-28T09:18:40.582Z,7.23
2023-02-28T09:21:42.168Z,10.13
2023-02-28T09:24:45.669Z,7.17
2023-02-28T09:27:47.151Z,8.57
2023-02-28T09:30:52.392Z,13.23
2023-02-28T09:33:55.852Z,7.93
2023-02-28T09:36:57.459Z,8.47
2023-02-28T09:39:58.904Z,8.40
2023-02-28T09:43:01.170Z,7.73
2023-02-28T09:46:24.419Z,12.07
2023-02-28T09:49:34.246Z,7.87
2023-02-28T09:52:37.381Z,8.10
2023-02-28T09:55:47.271Z,9.30
2023-02-28T09:58:52.003Z,7.73
2023-02-28T10:02:22.052Z,7.83
2023-02-28T10:05:54.344Z,7.93
2023-02-28T10:09:06.866Z,9.47
2023-02-28T10:12:12.453Z,9.03
2023-02-28T10:15:18.259Z,8.97
2023-02-28T10:18:25.720Z,8.87
2023-02-28T10:21:33.314Z,7.20
2023-02-28T10:24:46.901Z,9.73
2023-02-28T10:27:48.782Z,9.60
2023-02-28T10:30:52.754Z,8.83
2023-02-28T10:33:54.288Z,11.10
2023-02-28T10:36:56.721Z,8.27
2023-02-28T10:39:58.176Z,9.13
2023-02-28T10:43:01.834Z,10.50
2023-02-28T10:46:09.036Z,8.10
2023-02-28T10:49:21.219Z,8.80
2023-02-28T10:52:41.736Z,8.73
2023-02-28T10:55:43.473Z,9.57
2023-02-28T10:58:55.683Z,8.57
2023-02-28T11:01:57.349Z,9.00
2023-02-28T11:04:58.880Z,10.13
2023-02-28T11:08:07.596Z,8.80
2023-02-28T11:11:09.026Z,8.83
2023-02-28T11:14:27.066Z,8.53
2023-02-28T11:17:31.586Z,8.40
2023-02-28T11:20:35.036Z,8.17
2023-02-28T11:23:41.029Z,10.00
2023-02-28T11:26:49.469Z,11.10
2023-02-28T11:29:50.876Z,10.17
2023-02-28T11:32:52.381Z,9.87
2023-02-28T11:35:59.627Z,10.97
2023-02-28T11:39:09.783Z,7.80
2023-02-28T11:42:41.299Z,9.03
2023-02-28T11:46:11.720Z,9.23
2023-02-28T11:49:31.900Z,8.90
2023-02-28T11:53:17.755Z,8.83
2023-02-28T11:56:37.044Z,10.53
2023-02-28T11:59:53.793Z,9.30
2023-02-28T12:03:22.581Z,8.63
2023-02-28T12:06:50.182Z,9.10
2023-02-28T12:10:12.488Z,8.03
2023-02-28T12:13:22.610Z,8.47
2023-02-28T12:16:46.748Z,9.27
2023-02-28T12:20:03.964Z,10.00
2023-02-28T12:23:27.068Z,10.37
2023-02-28T12:26:40.831Z,12.67
2023-02-28T12:29:53.172Z,8.00
2023-02-28T12:33:10.163Z,8.77
2023-02-28T12:36:18.339Z,9.17
2023-02-28T12:39:27.088Z,11.27
2023-02-28T12:42:32.564Z,10.73
2023-02-28T12:45:52.054Z,10.13
2023-02-28T12:48:57.933Z,8.57
2023-02-28T12:52:02.532Z,9.33
2023-02-28T12:55:12.861Z,9.97
2023-02-28T12:58:23.496Z,9.10
2023-02-28T13:01:50.083Z,9.80
2023-02-28T13:05:25.603Z,11.50
2023-02-28T13:08:39.067Z,10.07
2023-02-28T13:11:55.390Z,8.60
2023-02-28T13:15:22.091Z,8.93
2023-02-28T13:18:46.164Z,10.53
2023-02-28T13:21:49.960Z,10.33
2023-02-28T13:24:57.418Z,9.40
2023-02-28T13:28:01.760Z,8.63
2023-02-28T13:31:05.666Z,10.00
2023-02-28T13:34:15.097Z,12.00
2023-02-28T13:37:22.686Z,8.57
2023-02-28T13:40:38.726Z,10.93
2023-02-28T13:44:09.853Z,8.73
2023-02-28T13:47:20.661Z,8.87
2023-02-28T13:50:32.924Z,9.43
2023-02-28T13:53:50.583Z,11.77
2023-02-28T13:57:08.875Z,9.87
2023-02-28T14:00:42.355Z,10.73
2023-02-28T14:04:07.429Z,10.67
2023-02-28T14:07:16.684Z,9.13
2023-02-28T14:10:31.741Z,8.60
2023-02-28T14:13:59.863Z,11.77
2023-02-28T14:17:03.139Z,9.40
2023-02-28T14:20:05.032Z,10.07
2023-02-28T14:23:21.757Z,10.30
2023-02-28T14:27:00.911Z,10.27
2023-02-28T14:30:33.101Z,11.20
2023-02-28T14:33:49.841Z,10.10
2023-02-28T14:36:54.122Z,11.20
2023-02-28T14:39:57.190Z,9.90
2023-02-28T14:43:06.933Z,11.13
2023-02-28T14:46:08.529Z,9.10
2023-02-28T14:49:24.114Z,8.90
2023-02-28T14:52:29.677Z,9.50
2023-02-28T14:55:34.801Z,10.30
2023-02-28T14:58:36.479Z,11.67
2023-02-28T15:01:37.916Z,11.70
2023-02-28T15:04:39.327Z,11.03
2023-02-28T15:07:40.802Z,11.00
2023-02-28T15:10:51.536Z,10.23
2023-02-28T15:13:56.296Z,9.03
2023-02-28T15:17:03.288Z,10.00
2023-02-28T15:20:05.301Z,11.90
2023-02-28T15:23:06.915Z,11.50
2023-02-28T15:26:12.069Z,9.87
2023-02-28T15:29:21.876Z,9.40
2023-02-28T15:32:32.680Z,10.50
2023-02-28T15:35:34.574Z,10.67
2023-02-28T15:38:37.175Z,10.83
2023-02-28T15:41:39.061Z,12.40
2023-02-28T15:44:40.698Z,8.93
2023-02-28T15:47:47.173Z,9.13
2023-02-28T15:50:53.551Z,9.50
2023-02-28T15:54:22.742Z,11.97
2023-02-28T15:57:30.034Z,10.63
2023-02-28T16:00:33.758Z,10.30
2023-02-28T16:03:41.788Z,9.33
2023-02-28T16:07:00.781Z,9.23
2023-02-28T16:10:03.237Z,10.30
2023-02-28T16:13:04.836Z,12.10
2023-02-28T16:16:06.645Z,11.13
2023-02-28T16:19:09.250Z,10.43
2023-02-28T16:22:10.744Z,16.80
2023-02-28T16:25:17.510Z,10.93
2023-02-28T16:28:24.868Z,10.77
2023-02-28T16:31:26.273Z,11.50
2023-02-28T16:34:27.955Z,10.03
2023-02-28T16:37:29.491Z,9.30
2023-02-28T16:40:35.962Z,11.10
2023-02-28T16:43:38.934Z,11.77
2023-02-28T16:46:40.749Z,10.73
2023-02-28T16:49:43.927Z,13.23
2023-02-28T16:52:45.468Z,10.90
2023-02-28T16:55:48.163Z,8.83
2023-02-28T16:58:50.663Z,10.17
2023-02-28T17:01:52.923Z,9.77
2023-02-28T17:04:54.423Z,8.80
2023-02-28T17:07:55.826Z,10.33
2023-02-28T17:10:57.340Z,10.70
2023-02-28T17:13:58.779Z,10.47
2023-02-28T17:17:00.350Z,11.00
2023-02-28T17:20:01.836Z,12.43
2023-02-28T17:23:03.416Z,10.73
2023-02-28T17:26:07.411Z,10.00
2023-02-28T17:29:20.833Z,8.60
2023-02-28T17:32:22.237Z,11.73
2023-02-28T17:35:24.772Z,10.90
2023-02-28T17:38:26.396Z,12.47
2023-02-28T17:41:27.815Z,18.13
2023-02-28T17:44:29.235Z,19.23
2023-02-28T17:47:30.726Z,13.77
2023-02-28T17:50:32.830Z,16.57
2023-02-28T17:53:34.236Z,18.27
2023-02-28T17:56:35.795Z,28.30
2023-02-28T17:59:37.166Z,11.23
2023-02-28T18:02:38.626Z,10.27
2023-02-28T18:05:40.562Z,10.70
2023-02-28T18:08:42.238Z,11.00
2023-02-28T18:11:46.030Z,14.13
2023-02-28T18:14:48.684Z,13.73
2023-02-28T18:17:50.626Z,16.17
2023-02-28T18:20:53.202Z,22.40
2023-02-28T18:23:54.783Z,17.07
2023-02-28T18:26:56.161Z,15.87
2023-02-28T18:29:57.548Z,19.50
2023-02-28T18:33:00.364Z,44.83
2023-02-28T18:36:02.025Z,22.63
2023-02-28T18:39:03.561Z,15.27
2023-02-28T18:42:05.114Z,25.37
2023-02-28T18:45:07.383Z,18.77
2023-02-28T18:48:08.771Z,42.27
2023-02-28T18:51:13.146Z,29.57
2023-02-28T18:54:15.655Z,22.63
2023-02-28T18:57:17.093Z,19.53
2023-02-28T19:00:22.227Z,15.20
2023-02-28T19:03:23.763Z,20.60
2023-02-28T19:06:25.153Z,29.80
2023-02-28T19:09:26.677Z,25.93
2023-02-28T19:12:28.057Z,32.37
2023-02-28T19:15:29.460Z,15.30
2023-02-28T19:18:32.127Z,18.70
2023-02-28T19:21:36.344Z,19.63
2023-02-28T19:24:37.746Z,22.70
2023-02-28T19:27:39.469Z,18.67
2023-02-28T19:30:45.996Z,14.87
2023-02-28T19:33:47.428Z,14.50
2023-02-28T19:36:49.581Z,13.83
2023-02-28T19:39:51.634Z,15.23
2023-02-28T19:42:53.008Z,15.87
2023-02-28T19:45:54.498Z,23.13
2023-02-28T19:48:55.894Z,51.27
2023-02-28T19:51:58.081Z,48.80
2023-02-28T19:54:59.726Z,56.37
2023-02-28T19:58:01.157Z,57.23
2023-02-28T20:01:17.459Z,47.90
2023-02-28T20:04:18.920Z,28.17
2023-02-28T20:07:20.521Z,17.93
2023-02-28T20:10:21.946Z,11.90
2023-02-28T20:13:27.978Z,17.37
2023-02-28T20:16:31.141Z,11.90
2023-02-28T20:19:32.963Z,12.97
2023-02-28T20:22:38.242Z,12.23
2023-02-28T20:25:40.737Z,10.20
2023-02-28T20:28:43.397Z,13.10
2023-02-28T20:31:44.875Z,13.83
2023-02-28T20:34:46.280Z,14.93
2023-02-28T20:37:47.672Z,16.20
2023-02-28T20:40:49.068Z,15.27
2023-02-28T20:44:02.259Z,13.83
2023-02-28T20:47:03.835Z,13.30
2023-02-28T20:50:05.926Z,13.37
2023-02-28T20:53:07.401Z,10.13
2023-02-28T20:56:13.649Z,10.07
2023-02-28T20:59:15.112Z,12.90
2023-02-28T21:02:17.159Z,11.90
2023-02-28T21:05:18.579Z,12.90
2023-02-28T21:08:20.016Z,10.00
2023-02-28T21:11:25.407Z,9.77
2023-02-28T21:14:27.298Z,11.50
2023-02-28T21:17:29.235Z,11.37
2023-02-28T21:20:30.627Z,10.43
2023-02-28T21:23:32.350Z,11.03
2023-02-28T21:26:33.888Z,10.17
2023-02-28T21:29:36.248Z,11.43
2023-02-28T21:32:37.679Z,10.63
2023-02-28T21:35:39.119Z,12.80
2023-02-28T21:38:42.094Z,13.70
2023-02-28T21:41:43.708Z,10.20
2023-02-28T21:44:45.228Z,9.83
2023-02-28T21:47:46.682Z,9.53
2023-02-28T21:51:02.381Z,10.90
2023-02-28T21:54:04.048Z,9.77
2023-02-28T21:57:05.635Z,10.17
2023-02-28T22:00:08.814Z,11.97
2023-02-28T22:03:13.921Z,10.93
2023-02-28T22:06:21.162Z,12.40
2023-02-28T22:09:22.713Z,12.53
2023-02-28T22:12:25.610Z,11.07
2023-02-28T22:15:27.585Z,12.43
2023-02-28T22:18:28.979Z,10.70
2023-02-28T22:21:30.405Z,10.47
2023-02-28T22:24:31.780Z,9.10
2023-02-28T22:27:33.854Z,8.13
2023-02-28T22:30:35.236Z,10.50
2023-02-28T22:33:36.599Z,9.07
2023-02-28T22:36:41.388Z,11.13
2023-02-28T22:39:42.874Z,10.13
2023-02-28T22:42:44.265Z,9.20
2023-02-28T22:45:45.684Z,10.17
2023-02-28T22:48:48.666Z,9.47
2023-02-28T22:51:50.080Z,11.20
2023-02-28T22:54:52.051Z,9.03
2023-02-28T22:57:53.474Z,11.87
2023-02-28T23:00:55.366Z,12.60
2023-02-28T23:03:57.247Z,10.47
2023-02-28T23:06:58.695Z,11.27
2023-02-28T23:10:00.144Z,9.77
2023-02-28T23:13:01.524Z,9.43
2023-02-28T23:16:07.235Z,14.93
2023-02-28T23:19:11.632Z,10.87
2023-02-28T23:22:13.011Z,8.63
2023-02-28T23:25:14.509Z,11.50
2023-02-28T23:28:16.266Z,10.40
2023-02-28T23:31:17.760Z,10.80
2023-02-28T23:34:26.103Z,12.33
2023-02-28T23:37:27.489Z,13.10
2023-02-28T23:40:28.930Z,10.10
2023-02-28T23:43:30.315Z,13.10
2023-02-28T23:46:32.104Z,11.40
2023-02-28T23:49:33.641Z,12.43
2023-02-28T23:52:35.098Z,11.50
2023-02-28T23:55:36.611Z,11.57
2023-02-28T23:58:37.995Z,11.60
